Time;durP1;ratioP1;P1;durP2;ratioP2;P2;SDS_P1;SDS_P2;PMS_P1;PMS_P2;Temp;Humidity;BMP_temperature;BMP_pressure;BME280_temperature;BME280_humidity;BME280_pressure;Samples;Min_cycle;Max_cycle;Signal;HPM_P1;HPM_P2
2023/01/10 00:01:24;;;;;;;1.37;0.70;;;6.60;99.90;;;;;;5100116;28;20053;-73
2023/01/10 00:03:50;;;;;;;1.80;0.60;;;6.60;99.90;;;;;;5100423;28;20020;-73
2023/01/10 00:06:16;;;;;;;0.87;0.80;;;6.60;99.90;;;;;;5105508;28;20024;-78
2023/01/10 00:08:41;;;;;;;1.93;0.80;;;6.60;99.90;;;;;;5108289;28;20063;-73
2023/01/10 00:13:55;;;;;;;1.53;0.80;;;6.60;99.90;;;;;;5119894;28;20152;-74
2023/01/10 00:16:21;;;;;;;1.93;0.60;;;6.50;99.90;;;;;;5096623;28;20371;-74
2023/01/10 00:18:47;;;;;;;0.50;0.50;;;6.60;99.90;;;;;;5115016;28;20063;-74
2023/01/10 00:21:13;;;;;;;0.90;0.80;;;6.50;99.90;;;;;;5097119;28;20024;-74
2023/01/10 00:23:40;;;;;;;0.97;0.67;;;6.50;99.90;;;;;;5095720;28;20073;-74
2023/01/10 00:26:05;;;;;;;2.00;0.80;;;6.50;99.90;;;;;;5096600;28;20080;-74
2023/01/10 00:28:33;;;;;;;1.50;0.60;;;6.50;99.90;;;;;;5114710;28;20357;-74
2023/01/10 00:31:00;;;;;;;0.67;0.60;;;6.50;99.90;;;;;;5096561;28;20484;-74
2023/01/10 00:33:27;;;;;;;0.60;0.60;;;6.50;99.90;;;;;;5095801;28;20028;-73
2023/01/10 00:35:52;;;;;;;1.23;0.50;;;6.50;99.90;;;;;;5115105;28;20058;-74
2023/01/10 00:38:18;;;;;;;1.27;0.50;;;6.50;99.90;;;;;;5096303;28;20146;-76
2023/01/10 00:40:44;;;;;;;2.40;0.50;;;6.50;99.90;;;;;;5114661;28;20027;-74
2023/01/10 00:45:56;;;;;;;0.60;0.60;;;6.50;99.90;;;;;;5115016;28;20070;-73
2023/01/10 00:48:21;;;;;;;1.03;0.40;;;6.60;99.90;;;;;;5095841;28;20434;-75
2023/01/10 00:50:47;;;;;;;1.33;0.30;;;6.50;99.90;;;;;;5114704;28;20032;-73
2023/01/10 00:53:13;;;;;;;0.73;0.47;;;6.50;99.90;;;;;;5096453;28;20023;-74
2023/01/10 00:55:39;;;;;;;1.10;0.50;;;6.50;99.90;;;;;;5095727;28;20055;-74
2023/01/10 00:58:05;;;;;;;0.70;0.30;;;6.50;99.90;;;;;;5095944;28;20038;-74
2023/01/10 01:00:31;;;;;;;2.30;0.67;;;6.50;99.90;;;;;;5113710;28;20028;-74
2023/01/10 01:02:56;;;;;;;0.90;0.30;;;6.50;99.90;;;;;;5095904;28;20030;-74
2023/01/10 01:05:22;;;;;;;0.37;0.30;;;6.50;99.90;;;;;;5113733;28;20023;-75
2023/01/10 01:07:51;;;;;;;0.33;0.33;;;6.50;99.90;;;;;;5095743;28;20031;-74
2023/01/10 01:10:27;;;;;;;1.13;0.40;;;6.50;99.90;;;;;;5095206;28;20110;-74
2023/01/10 01:12:58;;;;;;;0.73;0.40;;;6.50;99.90;;;;;;5095784;28;20373;-74
2023/01/10 01:15:24;;;;;;;0.90;0.50;;;6.50;99.90;;;;;;5095369;28;20024;-74
2023/01/10 01:17:50;;;;;;;2.10;0.50;;;6.60;99.90;;;;;;5095572;28;20431;-74
2023/01/10 01:20:16;;;;;;;2.00;0.50;;;6.60;99.90;;;;;;5095855;28;20023;-74
2023/01/10 01:22:41;;;;;;;1.43;0.50;;;6.50;99.90;;;;;;5095372;28;20035;-74
2023/01/10 01:25:07;;;;;;;1.27;0.50;;;6.50;99.90;;;;;;5095572;28;20023;-74
2023/01/10 01:27:37;;;;;;;2.50;0.53;;;6.50;99.90;;;;;;5095052;28;20092;-74
2023/01/10 01:30:07;;;;;;;0.83;0.40;;;6.50;99.90;;;;;;5113799;28;20081;-74
2023/01/10 01:32:33;;;;;;;3.07;0.50;;;6.60;99.90;;;;;;5094707;28;20107;-74
2023/01/10 01:34:59;;;;;;;1.10;0.40;;;6.50;99.90;;;;;;5095525;28;20518;-74
2023/01/10 01:37:24;;;;;;;2.77;0.40;;;6.60;99.90;;;;;;5095222;28;20085;-75
2023/01/10 01:39:50;;;;;;;1.37;0.50;;;6.50;99.90;;;;;;5114157;28;20032;-74
2023/01/10 01:42:35;;;;;;;2.37;0.60;;;6.50;99.90;;;;;;5095555;28;20369;-74
2023/01/10 01:45:07;;;;;;;1.40;0.50;;;6.60;99.90;;;;;;5095214;28;20024;-74
2023/01/10 01:47:42;;;;;;;0.73;0.40;;;6.60;99.90;;;;;;5094318;28;20031;-74
2023/01/10 01:50:14;;;;;;;0.50;0.40;;;6.60;99.90;;;;;;5113146;28;20107;-74
2023/01/10 01:52:39;;;;;;;2.78;0.47;;;6.60;99.90;;;;;;5094916;28;20524;-74
2023/01/10 01:55:06;;;;;;;0.40;0.40;;;6.60;99.90;;;;;;5095327;28;20110;-74
2023/01/10 01:57:32;;;;;;;4.43;0.60;;;6.50;99.90;;;;;;5094640;28;20036;-73
2023/01/10 01:59:59;;;;;;;1.73;0.47;;;6.50;99.90;;;;;;5095483;28;20389;-74
2023/01/10 02:02:30;;;;;;;2.07;0.80;;;6.50;99.90;;;;;;5094801;28;20026;-76
2023/01/10 02:05:07;;;;;;;2.57;0.50;;;6.50;99.90;;;;;;5094921;28;20085;-74
2023/01/10 02:07:36;;;;;;;1.40;0.50;;;6.50;99.90;;;;;;5112618;28;20039;-74
2023/01/10 02:10:16;;;;;;;1.17;0.70;;;6.50;99.90;;;;;;5095165;28;20422;-74
2023/01/10 02:12:46;;;;;;;1.47;0.50;;;6.50;99.90;;;;;;5094047;28;20032;-74
2023/01/10 02:15:14;;;;;;;2.03;0.60;;;6.50;99.90;;;;;;5113067;28;20106;-74
2023/01/10 02:17:40;;;;;;;0.90;0.40;;;6.50;99.90;;;;;;5090516;28;20401;-74
2023/01/10 02:20:09;;;;;;;0.50;0.40;;;6.50;99.90;;;;;;5091511;28;20119;-74
2023/01/10 02:23:22;;;;;;;1.13;0.40;;;6.50;99.90;;;;;;5091147;28;20073;-74
2023/01/10 02:26:06;;;;;;;1.70;0.50;;;6.50;99.90;;;;;;5092223;28;20020;-74
2023/01/10 02:29:07;;;;;;;2.73;0.50;;;6.50;99.90;;;;;;5092242;28;20039;-75
2023/01/10 02:32:10;;;;;;;1.30;0.50;;;6.50;99.90;;;;;;5091995;28;20036;-74
2023/01/10 02:34:53;;;;;;;2.00;0.50;;;6.50;99.90;;;;;;5092186;28;20016;-74
2023/01/10 02:37:53;;;;;;;0.90;0.40;;;6.50;99.90;;;;;;5091514;28;20039;-74
2023/01/10 02:40:25;;;;;;;2.87;0.70;;;6.50;99.90;;;;;;5087156;28;20042;-73
2023/01/10 02:43:18;;;;;;;0.52;0.30;;;6.60;99.90;;;;;;5092376;28;20020;-74
2023/01/10 02:45:57;;;;;;;1.47;0.40;;;6.50;99.90;;;;;;5090809;28;20131;-74
2023/01/10 02:48:23;;;;;;;1.13;0.60;;;6.50;99.90;;;;;;5091045;28;20127;-74
2023/01/10 02:51:10;;;;;;;1.50;0.50;;;6.50;99.90;;;;;;5092029;28;20457;-74
2023/01/10 02:53:40;;;;;;;2.23;0.40;;;6.50;99.90;;;;;;5091930;28;20020;-74
2023/01/10 02:56:23;;;;;;;1.73;0.63;;;6.40;99.90;;;;;;5091031;28;20024;-74
2023/01/10 02:59:07;;;;;;;0.83;0.37;;;6.50;99.90;;;;;;5096288;28;20048;-74
2023/01/10 03:01:48;;;;;;;1.80;0.40;;;6.40;99.90;;;;;;5096025;28;20067;-74
2023/01/10 03:04:33;;;;;;;2.30;0.60;;;6.40;99.90;;;;;;5096492;28;20032;-74
2023/01/10 03:07:23;;;;;;;0.40;0.40;;;6.40;99.90;;;;;;5095356;28;20028;-74
2023/01/10 03:09:55;;;;;;;2.23;0.43;;;6.30;99.90;;;;;;5094644;28;20453;-73
2023/01/10 03:12:27;;;;;;;4.10;0.50;;;6.30;99.90;;;;;;5094738;28;20017;-74
2023/01/10 03:14:56;;;;;;;2.43;0.60;;;6.20;99.90;;;;;;5095026;28;20028;-74
2023/01/10 03:17:23;;;;;;;1.70;0.43;;;6.20;99.90;;;;;;5103237;28;20051;-74
2023/01/10 03:19:51;;;;;;;1.37;0.40;;;6.20;99.90;;;;;;5097684;28;20032;-74
2023/01/10 03:22:17;;;;;;;0.50;0.40;;;6.20;99.90;;;;;;5098214;28;20024;-74
2023/01/10 03:24:48;;;;;;;0.97;0.50;;;6.20;99.90;;;;;;5115911;28;20034;-74
2023/01/10 03:27:18;;;;;;;1.13;0.60;;;6.20;99.90;;;;;;5097729;28;20031;-74
2023/01/10 03:29:54;;;;;;;2.07;0.67;;;6.10;99.90;;;;;;5097163;28;20085;-74
2023/01/10 03:32:24;;;;;;;2.10;0.70;;;6.10;99.90;;;;;;5098144;28;20106;-74
2023/01/10 03:34:51;;;;;;;2.43;0.50;;;6.00;99.90;;;;;;5097545;28;20030;-74
2023/01/10 03:37:28;;;;;;;0.83;0.60;;;6.00;99.90;;;;;;5116190;28;20030;-74
2023/01/10 03:40:13;;;;;;;3.30;1.00;;;6.00;99.90;;;;;;5097384;28;20031;-74
2023/01/10 03:46:09;;;;;;;3.07;0.60;;;6.10;99.90;;;;;;5116229;28;20466;-74
2023/01/10 03:48:40;;;;;;;4.83;0.90;;;6.10;99.90;;;;;;5096851;28;20114;-74
2023/01/10 03:51:07;;;;;;;4.60;0.83;;;6.10;99.90;;;;;;5115558;28;20051;-74
2023/01/10 03:53:36;;;;;;;2.53;0.73;;;6.10;99.90;;;;;;5115722;28;20037;-73
2023/01/10 03:56:01;;;;;;;3.63;0.80;;;6.10;99.90;;;;;;5097625;28;20043;-72
2023/01/10 03:58:30;;;;;;;5.50;1.10;;;6.20;99.90;;;;;;5097173;28;20073;-73
2023/01/10 04:00:56;;;;;;;6.47;1.40;;;6.20;99.90;;;;;;5097098;28;20028;-73
2023/01/10 04:03:22;;;;;;;1.33;0.77;;;6.20;99.90;;;;;;5115598;28;20376;-73
2023/01/10 04:05:47;;;;;;;4.70;1.20;;;6.20;99.90;;;;;;5096770;28;20174;-73
2023/01/10 04:08:13;;;;;;;4.17;1.60;;;6.30;99.90;;;;;;5096976;28;20042;-73
2023/01/10 04:10:38;;;;;;;9.43;1.00;;;6.30;99.90;;;;;;5096542;28;20055;-73
2023/01/10 04:13:04;;;;;;;8.87;1.40;;;6.30;99.90;;;;;;5115593;28;20020;-73
2023/01/10 04:15:31;;;;;;;5.43;1.30;;;6.30;99.90;;;;;;5097162;28;20062;-76
2023/01/10 04:17:56;;;;;;;6.03;1.40;;;6.30;99.90;;;;;;5096781;28;20134;-73
2023/01/10 04:20:25;;;;;;;8.07;1.37;;;6.30;99.90;;;;;;5097303;28;20535;-73
2023/01/10 04:22:53;;;;;;;6.23;1.20;;;6.30;99.90;;;;;;5096524;28;20020;-73
2023/01/10 04:25:19;;;;;;;5.83;1.33;;;6.30;99.90;;;;;;5097179;28;20027;-73
2023/01/10 04:27:45;;;;;;;4.20;1.17;;;6.30;99.90;;;;;;5096280;28;20119;-73
2023/01/10 04:30:10;;;;;;;6.60;1.20;;;6.30;99.90;;;;;;5096991;28;20429;-73
2023/01/10 04:32:36;;;;;;;5.30;1.37;;;6.30;99.90;;;;;;5096102;28;20028;-73
2023/01/10 04:35:01;;;;;;;10.13;1.87;;;6.20;99.90;;;;;;5096602;28;20083;-73
2023/01/10 04:37:27;;;;;;;8.80;1.50;;;6.30;99.90;;;;;;5096943;28;20024;-73
2023/01/10 04:39:53;;;;;;;6.77;1.27;;;6.30;99.90;;;;;;5096132;28;20364;-73
2023/01/10 04:42:18;;;;;;;7.10;1.27;;;6.30;99.90;;;;;;5096425;28;20096;-73
2023/01/10 04:44:44;;;;;;;8.10;1.20;;;6.20;99.90;;;;;;5095776;28;20024;-73
2023/01/10 04:47:09;;;;;;;6.87;1.73;;;6.20;99.90;;;;;;5096535;28;20428;-73
2023/01/10 04:49:35;;;;;;;4.93;1.07;;;6.30;99.90;;;;;;5096105;28;20046;-74
2023/01/10 04:52:00;;;;;;;8.13;1.30;;;6.20;99.90;;;;;;5096417;28;20469;-73
2023/01/10 04:54:26;;;;;;;4.67;1.17;;;6.20;99.90;;;;;;5114847;28;20106;-73
2023/01/10 04:56:51;;;;;;;7.53;1.47;;;6.20;99.90;;;;;;5095492;28;20113;-73
2023/01/10 04:59:17;;;;;;;7.27;1.20;;;6.30;99.90;;;;;;5096174;28;20088;-72
2023/01/10 05:01:43;;;;;;;9.57;2.03;;;6.30;99.90;;;;;;5114056;28;20028;-73
2023/01/10 05:04:09;;;;;;;8.13;1.60;;;6.30;99.90;;;;;;5096530;28;20027;-73
2023/01/10 05:06:35;;;;;;;7.40;1.33;;;6.30;99.90;;;;;;5095525;28;20030;-75
2023/01/10 05:09:02;;;;;;;10.70;2.00;;;6.30;99.90;;;;;;5095825;28;20031;-73
2023/01/10 05:11:27;;;;;;;8.50;1.53;;;6.30;99.90;;;;;;5114298;28;20136;-73
2023/01/10 05:13:53;;;;;;;7.27;1.43;;;6.30;99.90;;;;;;5113689;28;20123;-73
2023/01/10 05:16:18;;;;;;;11.90;1.90;;;6.30;99.90;;;;;;5096030;28;20028;-73
2023/01/10 05:18:44;;;;;;;6.60;1.50;;;6.30;99.90;;;;;;5095143;28;20527;-73
2023/01/10 05:21:12;;;;;;;10.20;1.87;;;6.30;99.90;;;;;;5094969;28;20031;-73
2023/01/10 05:23:38;;;;;;;7.53;1.03;;;6.30;99.90;;;;;;5095530;28;20456;-74
2023/01/10 05:26:09;;;;;;;8.77;1.70;;;6.30;99.90;;;;;;5113891;28;20527;-73
2023/01/10 05:28:35;;;;;;;6.27;1.23;;;6.30;99.90;;;;;;5095589;28;20062;-76
2023/01/10 05:31:01;;;;;;;8.03;1.37;;;6.20;99.90;;;;;;5095604;28;20114;-73
2023/01/10 05:33:27;;;;;;;11.63;1.80;;;6.30;99.90;;;;;;5113790;28;20484;-73
2023/01/10 05:35:53;;;;;;;9.33;1.50;;;6.20;99.90;;;;;;5095043;28;20027;-73
2023/01/10 05:38:18;;;;;;;9.23;1.40;;;6.20;99.90;;;;;;5095069;28;20073;-73
2023/01/10 05:40:44;;;;;;;10.60;1.53;;;6.20;99.90;;;;;;5113547;28;20059;-73
2023/01/10 05:43:10;;;;;;;8.50;1.83;;;6.20;99.90;;;;;;5095402;28;20053;-73
2023/01/10 05:45:37;;;;;;;7.50;1.57;;;6.20;99.90;;;;;;5113626;28;20443;-76
2023/01/10 05:48:02;;;;;;;7.80;1.77;;;6.20;99.90;;;;;;5094623;28;20114;-73
2023/01/10 05:50:28;;;;;;;10.40;1.40;;;6.20;99.90;;;;;;5113118;28;20103;-73
2023/01/10 05:52:53;;;;;;;10.17;1.77;;;6.20;99.90;;;;;;5095114;28;20122;-72
2023/01/10 05:55:19;;;;;;;10.93;1.87;;;6.20;99.90;;;;;;5095604;28;20027;-73
2023/01/10 05:57:45;;;;;;;4.73;1.60;;;6.20;99.90;;;;;;5094640;28;20027;-73
2023/01/10 06:00:11;;;;;;;9.63;1.67;;;6.20;99.90;;;;;;5095127;28;20084;-73
2023/01/10 06:02:37;;;;;;;9.90;1.80;;;6.30;99.90;;;;;;5113232;28;20027;-76
2023/01/10 06:05:02;;;;;;;7.03;2.27;;;6.20;99.90;;;;;;5095138;28;20102;-73
2023/01/10 06:07:28;;;;;;;7.67;1.30;;;6.20;99.90;;;;;;5095153;28;20027;-73
2023/01/10 06:09:54;;;;;;;9.90;1.73;;;6.30;99.90;;;;;;5112865;28;20129;-74
2023/01/10 06:12:19;;;;;;;8.03;1.63;;;6.20;99.90;;;;;;5113413;28;20468;-73
2023/01/10 06:14:45;;;;;;;7.10;1.30;;;6.20;99.90;;;;;;5112822;28;20024;-74
2023/01/10 06:17:11;;;;;;;11.17;1.77;;;6.20;99.90;;;;;;5112913;28;20181;-73
2023/01/10 06:19:36;;;;;;;7.60;1.50;;;6.20;99.90;;;;;;5094962;28;20036;-77
2023/01/10 06:22:03;;;;;;;7.10;1.80;;;6.20;99.90;;;;;;5094674;28;20479;-73
2023/01/10 06:24:28;;;;;;;8.37;1.60;;;6.30;99.90;;;;;;5113411;28;20020;-73
2023/01/10 06:26:54;;;;;;;13.30;2.30;;;6.20;99.90;;;;;;5112637;28;20034;-74
2023/01/10 06:29:19;;;;;;;9.27;1.50;;;6.20;99.90;;;;;;5094894;28;20515;-73
2023/01/10 06:31:45;;;;;;;6.93;1.20;;;6.20;99.90;;;;;;5096004;28;20030;-74
2023/01/10 06:34:11;;;;;;;7.20;1.57;;;6.20;99.90;;;;;;5101774;28;20399;-73
2023/01/10 06:36:36;;;;;;;11.43;1.63;;;6.20;99.90;;;;;;5119941;28;20035;-73
2023/01/10 06:39:02;;;;;;;9.73;1.83;;;6.20;99.90;;;;;;5101197;28;20092;-73
2023/01/10 06:41:27;;;;;;;7.57;1.40;;;6.20;99.90;;;;;;5101629;28;20026;-73
2023/01/10 06:43:53;;;;;;;5.13;1.47;;;6.30;99.90;;;;;;5119378;28;20020;-73
2023/01/10 06:46:19;;;;;;;8.80;1.47;;;6.20;99.90;;;;;;5101553;28;20027;-73
2023/01/10 06:48:45;;;;;;;10.07;1.87;;;6.20;99.90;;;;;;5100875;28;20027;-73
2023/01/10 06:51:13;;;;;;;6.40;1.37;;;6.20;99.90;;;;;;5101309;28;20027;-73
2023/01/10 06:53:39;;;;;;;7.73;1.50;;;6.20;99.90;;;;;;5101073;28;20140;-77
2023/01/10 06:56:05;;;;;;;7.43;1.50;;;6.20;99.90;;;;;;5119153;28;20476;-73
2023/01/10 06:58:32;;;;;;;4.50;1.20;;;6.10;99.90;;;;;;5120030;28;20027;-73
2023/01/10 07:00:57;;;;;;;8.03;1.60;;;6.10;99.90;;;;;;5100909;28;20035;-73
2023/01/10 07:03:23;;;;;;;9.47;1.40;;;6.10;99.90;;;;;;5119438;28;20028;-73
2023/01/10 07:05:48;;;;;;;10.00;1.50;;;6.00;99.90;;;;;;5100741;28;20039;-74
2023/01/10 07:08:15;;;;;;;11.30;1.90;;;6.00;99.90;;;;;;5119441;28;20032;-73
2023/01/10 07:10:41;;;;;;;9.63;2.87;;;6.00;99.90;;;;;;5119325;28;20023;-76
2023/01/10 07:13:07;;;;;;;8.13;1.70;;;6.00;99.90;;;;;;5100721;28;20069;-73
2023/01/10 07:15:32;;;;;;;7.57;1.30;;;6.00;99.90;;;;;;5119565;28;20037;-73
2023/01/10 07:17:58;;;;;;;7.90;1.70;;;6.00;99.90;;;;;;5096771;28;20056;-73
2023/01/10 07:20:25;;;;;;;11.70;1.47;;;6.00;99.90;;;;;;5097825;28;20062;-73
2023/01/10 07:22:58;;;;;;;8.73;1.70;;;6.10;99.90;;;;;;5096825;28;20457;-74
2023/01/10 07:25:26;;;;;;;6.13;1.63;;;6.10;99.90;;;;;;5097751;28;20024;-73
2023/01/10 07:27:54;;;;;;;9.17;1.80;;;6.10;99.90;;;;;;5098423;28;20088;-74
2023/01/10 07:30:19;;;;;;;9.60;1.80;;;6.10;99.90;;;;;;5098761;28;20066;-73
2023/01/10 07:32:51;;;;;;;13.43;2.20;;;6.10;99.90;;;;;;5098184;28;20055;-74
2023/01/10 07:35:16;;;;;;;10.10;2.15;;;6.10;99.90;;;;;;5097597;28;20020;-73
2023/01/10 07:37:42;;;;;;;11.93;2.37;;;6.10;99.90;;;;;;5097127;28;20396;-78
2023/01/10 07:40:08;;;;;;;9.83;2.53;;;6.10;99.90;;;;;;5096678;28;20043;-73
2023/01/10 07:42:33;;;;;;;10.07;1.90;;;6.10;99.90;;;;;;5097219;28;20088;-73
2023/01/10 07:44:59;;;;;;;12.70;3.00;;;6.00;99.90;;;;;;5092537;28;20525;-73
2023/01/10 07:47:25;;;;;;;8.63;1.90;;;6.00;99.90;;;;;;5094077;28;20020;-73
2023/01/10 07:49:50;;;;;;;11.67;3.70;;;6.00;99.90;;;;;;5094593;28;20024;-74
2023/01/10 07:52:16;;;;;;;10.07;2.40;;;6.10;99.90;;;;;;5094127;28;20021;-73
2023/01/10 07:54:41;;;;;;;9.77;1.87;;;6.10;99.90;;;;;;5094426;28;20082;-73
2023/01/10 07:57:07;;;;;;;6.97;2.00;;;6.20;99.90;;;;;;5093745;28;20473;-73
2023/01/10 07:59:32;;;;;;;13.27;2.20;;;6.20;99.90;;;;;;5095577;28;20032;-73
2023/01/10 08:01:58;;;;;;;9.23;2.13;;;6.20;99.90;;;;;;5093692;28;20119;-73
2023/01/10 08:04:24;;;;;;;8.87;2.40;;;6.20;99.90;;;;;;5094021;28;20424;-73
2023/01/10 08:06:50;;;;;;;10.97;2.00;;;6.20;99.90;;;;;;5093519;28;20426;-73
2023/01/10 08:09:16;;;;;;;9.73;1.73;;;6.20;99.90;;;;;;5094191;28;20058;-73
2023/01/10 08:11:42;;;;;;;7.67;1.80;;;6.30;99.90;;;;;;5093957;28;20453;-73
2023/01/10 08:14:07;;;;;;;9.07;1.87;;;6.30;99.90;;;;;;5094708;28;20016;-73
2023/01/10 08:16:33;;;;;;;7.43;2.40;;;6.30;99.90;;;;;;5093655;28;20107;-73
2023/01/10 08:18:59;;;;;;;11.00;2.43;;;6.30;99.90;;;;;;5114802;28;20028;-73
2023/01/10 08:21:24;;;;;;;11.47;2.17;;;6.30;99.90;;;;;;5096886;28;20031;-73
2023/01/10 08:23:50;;;;;;;11.33;2.07;;;6.30;99.90;;;;;;5096779;28;20023;-73
2023/01/10 08:26:16;;;;;;;12.20;2.00;;;6.30;99.90;;;;;;5097350;28;20019;-73
2023/01/10 08:28:42;;;;;;;11.10;2.00;;;6.30;99.90;;;;;;5115582;28;20027;-73
2023/01/10 08:31:08;;;;;;;13.20;2.33;;;6.30;99.90;;;;;;5096603;28;20039;-74
2023/01/10 08:33:37;;;;;;;6.37;2.00;;;6.30;99.90;;;;;;5096906;28;20020;-73
2023/01/10 08:36:02;;;;;;;6.87;2.40;;;6.30;99.90;;;;;;5096377;28;20024;-73
2023/01/10 08:38:28;;;;;;;12.07;2.77;;;6.30;99.90;;;;;;5096548;28;20039;-73
2023/01/10 08:40:57;;;;;;;8.60;1.83;;;6.30;99.90;;;;;;5102849;28;20031;-73
2023/01/10 08:43:23;;;;;;;10.40;2.00;;;6.30;99.90;;;;;;5097068;28;20020;-73
2023/01/10 08:45:49;;;;;;;10.10;2.27;;;6.40;99.90;;;;;;5113335;28;20034;-75
2023/01/10 08:48:14;;;;;;;8.57;2.07;;;6.40;99.90;;;;;;5094107;28;20085;-73
2023/01/10 08:50:40;;;;;;;13.53;2.10;;;6.40;99.90;;;;;;5076198;28;20389;-73
2023/01/10 08:53:06;;;;;;;10.87;1.97;;;6.50;99.90;;;;;;5112760;28;20026;-74
2023/01/10 08:55:34;;;;;;;9.40;1.80;;;6.40;99.90;;;;;;5096065;28;20020;-73
2023/01/10 08:58:00;;;;;;;11.93;2.20;;;6.50;99.90;;;;;;5114237;28;20483;-74
2023/01/10 09:00:26;;;;;;;7.47;1.90;;;6.50;99.90;;;;;;5096274;28;20023;-73
2023/01/10 09:02:51;;;;;;;9.70;2.23;;;6.50;99.90;;;;;;5113876;28;20027;-74
2023/01/10 09:05:17;;;;;;;11.63;1.77;;;6.50;99.90;;;;;;5096144;28;20084;-73
2023/01/10 09:07:43;;;;;;;9.47;1.90;;;6.50;99.90;;;;;;5096066;28;20127;-73
2023/01/10 09:10:09;;;;;;;12.13;2.30;;;6.50;99.90;;;;;;5088643;28;20483;-73
2023/01/10 09:15:19;;;;;;;6.20;1.63;;;6.60;99.90;;;;;;5093413;28;20039;-74
2023/01/10 09:17:45;;;;;;;10.43;2.10;;;6.60;99.90;;;;;;5080303;28;20535;-75
2023/01/10 09:20:11;;;;;;;5.37;1.73;;;6.50;99.90;;;;;;5092371;28;20106;-73
2023/01/10 09:22:37;;;;;;;11.03;2.37;;;6.60;99.90;;;;;;5093605;28;20024;-73
2023/01/10 09:25:03;;;;;;;6.97;1.80;;;6.60;99.90;;;;;;5091625;28;20024;-73
2023/01/10 09:27:29;;;;;;;7.93;1.90;;;6.70;99.90;;;;;;5093253;28;20028;-74
2023/01/10 09:29:55;;;;;;;10.40;1.80;;;6.60;99.90;;;;;;5092506;28;20032;-74
2023/01/10 09:32:20;;;;;;;12.70;2.07;;;6.70;99.90;;;;;;5093310;28;20027;-73
2023/01/10 09:34:46;;;;;;;7.20;2.00;;;6.70;99.90;;;;;;5091323;28;20025;-77
2023/01/10 09:37:11;;;;;;;12.87;2.40;;;6.70;99.90;;;;;;5092669;28;20020;-73
2023/01/10 09:39:37;;;;;;;7.90;1.87;;;6.80;99.90;;;;;;5087612;28;20376;-78
2023/01/10 09:42:18;;;;;;;8.70;1.70;;;6.80;99.90;;;;;;5090833;28;20048;-73
2023/01/10 09:45:02;;;;;;;7.73;1.93;;;6.90;99.90;;;;;;5091946;28;20024;-74
2023/01/10 09:47:40;;;;;;;12.07;2.27;;;6.90;99.90;;;;;;5091646;28;20038;-75
2023/01/10 09:50:26;;;;;;;15.33;2.30;;;6.90;99.90;;;;;;5091288;28;20028;-73
2023/01/10 09:53:04;;;;;;;8.87;2.13;;;6.90;99.90;;;;;;5091224;28;20114;-74
2023/01/10 09:55:37;;;;;;;7.00;1.70;;;6.90;99.90;;;;;;5091277;28;20063;-74
2023/01/10 09:58:18;;;;;;;8.87;1.83;;;6.90;99.90;;;;;;5090480;28;20409;-74
2023/01/10 10:00:49;;;;;;;6.47;1.43;;;6.80;99.90;;;;;;5091420;28;20544;-74
2023/01/10 10:03:35;;;;;;;6.35;1.63;;;6.80;99.90;;;;;;5091887;28;20066;-73
2023/01/10 10:06:02;;;;;;;14.80;2.13;;;6.80;99.90;;;;;;5090824;28;20457;-73
2023/01/10 10:08:28;;;;;;;6.80;1.87;;;6.80;99.90;;;;;;5091270;28;20419;-73
2023/01/10 10:11:25;;;;;;;7.90;1.70;;;6.90;99.90;;;;;;5079312;28;20029;-73
2023/01/10 10:14:15;;;;;;;7.63;1.90;;;7.00;99.90;;;;;;5080324;28;20073;-74
2023/01/10 10:16:43;;;;;;;8.70;1.97;;;7.00;99.90;;;;;;5092575;28;20197;-74
2023/01/10 10:19:21;;;;;;;7.70;1.43;;;7.10;99.90;;;;;;5077493;28;20078;-74
2023/01/10 10:22:02;;;;;;;5.20;1.07;;;7.10;99.90;;;;;;5093839;28;20435;-76
2023/01/10 10:24:39;;;;;;;7.53;1.47;;;7.10;99.90;;;;;;5094478;28;20028;-73
2023/01/10 10:27:35;;;;;;;5.87;1.40;;;7.10;99.90;;;;;;5112102;28;20042;-73
2023/01/10 10:30:29;;;;;;;6.20;1.42;;;7.20;99.90;;;;;;5094089;28;20043;-74
2023/01/10 10:33:00;;;;;;;8.07;1.60;;;7.20;99.90;;;;;;5094021;28;20024;-75
2023/01/10 10:35:31;;;;;;;7.47;1.47;;;7.20;99.90;;;;;;5112410;28;20024;-74
2023/01/10 10:38:07;;;;;;;8.95;1.92;;;7.20;99.90;;;;;;5093946;28;20384;-75
2023/01/10 10:40:38;;;;;;;5.93;1.40;;;7.00;99.90;;;;;;5083351;28;20036;-73
2023/01/10 10:43:20;;;;;;;7.23;1.40;;;7.10;99.90;;;;;;5093537;28;20027;-74
2023/01/10 10:45:46;;;;;;;;;;;7.10;99.90;;;;;;5094134;28;20122;-74
2023/01/10 10:48:23;;;;;;;12.00;1.50;;;7.10;99.90;;;;;;5094354;28;20034;-73
2023/01/10 10:51:00;;;;;;;8.47;1.70;;;7.20;99.90;;;;;;5093894;28;20024;-74
2023/01/10 10:53:26;;;;;;;5.37;1.70;;;7.30;99.90;;;;;;5094446;28;20048;-74
2023/01/10 10:55:52;;;;;;;10.77;2.10;;;7.20;99.90;;;;;;5093657;28;20023;-73
2023/01/10 10:58:18;;;;;;;6.10;1.83;;;7.20;99.90;;;;;;5112692;28;20102;-73
2023/01/10 11:00:45;;;;;;;8.18;1.85;;;7.20;99.90;;;;;;5094231;28;20032;-73
2023/01/10 11:03:27;;;;;;;9.13;2.20;;;7.20;99.90;;;;;;5093873;28;20074;-73
2023/01/10 11:05:53;;;;;;;7.60;2.00;;;7.20;99.90;;;;;;5093346;28;20045;-74
2023/01/10 11:08:21;;;;;;;9.80;1.75;;;7.20;99.90;;;;;;5094161;28;20507;-73
2023/01/10 11:10:52;;;;;;;9.30;1.90;;;7.30;99.90;;;;;;5100280;28;20024;-73
2023/01/10 11:13:33;;;;;;;8.07;1.80;;;7.20;99.90;;;;;;5094365;28;20019;-73
2023/01/10 11:16:00;;;;;;;7.50;1.63;;;7.30;99.90;;;;;;5111490;28;20299;-73
2023/01/10 11:18:28;;;;;;;12.43;1.70;;;7.30;99.90;;;;;;5095001;28;20043;-73
2023/01/10 11:21:10;;;;;;;7.83;1.30;;;7.40;99.90;;;;;;5115844;28;20023;-73
2023/01/10 11:23:55;;;;;;;9.00;1.63;;;7.50;99.90;;;;;;5102035;28;20019;-73
2023/01/10 11:26:49;;;;;;;8.47;2.47;;;7.50;99.90;;;;;;5116113;28;20024;-73
2023/01/10 11:29:24;;;;;;;9.20;1.80;;;7.50;99.90;;;;;;5095972;28;20119;-73
2023/01/10 11:31:51;;;;;;;4.97;1.60;;;7.60;99.90;;;;;;5108059;28;20038;-74
2023/01/10 11:34:28;;;;;;;8.33;2.03;;;7.60;99.90;;;;;;5107706;28;20444;-74
2023/01/10 11:37:02;;;;;;;8.30;1.67;;;7.60;99.90;;;;;;5115486;28;20045;-73
2023/01/10 11:39:30;;;;;;;9.90;1.95;;;7.70;99.90;;;;;;5114509;28;20076;-76
2023/01/10 11:41:58;;;;;;;6.17;1.63;;;7.70;99.90;;;;;;5105439;28;20358;-74
2023/01/10 11:44:29;;;;;;;10.17;1.60;;;7.80;99.90;;;;;;5103062;28;20427;-74
2023/01/10 11:46:58;;;;;;;8.98;1.60;;;7.80;99.90;;;;;;5112340;28;20062;-73
2023/01/10 11:49:33;;;;;;;7.00;1.52;;;7.80;99.90;;;;;;5097112;28;20122;-74
2023/01/10 11:52:04;;;;;;;7.60;1.50;;;7.80;99.90;;;;;;5104463;28;20031;-73
2023/01/10 11:54:31;;;;;;;9.68;1.58;;;7.80;99.90;;;;;;5102475;28;20023;-73
2023/01/10 11:57:05;;;;;;;6.53;1.40;;;7.90;99.90;;;;;;5112104;28;20034;-73
2023/01/10 11:59:31;;;;;;;9.60;1.42;;;7.90;99.90;;;;;;5100733;28;20369;-74
2023/01/10 12:02:09;;;;;;;11.98;1.88;;;7.90;99.90;;;;;;5114983;28;20019;-73
2023/01/10 12:04:42;;;;;;;14.10;2.10;;;7.80;99.90;;;;;;5109503;28;20544;-74
2023/01/10 12:07:11;;;;;;;5.65;1.60;;;7.80;99.90;;;;;;5098251;28;20016;-73
2023/01/10 12:09:42;;;;;;;9.55;1.55;;;7.80;99.90;;;;;;5112641;28;20068;-74
2023/01/10 12:12:34;;;;;;;9.82;1.35;;;7.80;99.90;;;;;;5097152;28;20072;-74
2023/01/10 12:15:24;;;;;;;4.50;1.00;;;7.70;99.90;;;;;;5097148;28;20073;-73
2023/01/10 12:17:51;;;;;;;7.72;1.33;;;7.60;99.90;;;;;;5106896;28;20104;-74
2023/01/10 12:20:18;;;;;;;9.63;1.20;;;7.70;99.90;;;;;;5107101;28;20092;-73
2023/01/10 12:22:47;;;;;;;8.07;1.60;;;7.70;99.90;;;;;;5099926;28;20031;-73
2023/01/10 12:25:19;;;;;;;6.22;1.30;;;7.80;99.90;;;;;;5112503;28;20468;-73
2023/01/10 12:27:48;;;;;;;7.97;1.75;;;8.00;99.90;;;;;;5101698;28;20028;-77
2023/01/10 12:30:26;;;;;;;6.47;1.50;;;8.10;99.90;;;;;;5114545;28;20366;-73
2023/01/10 12:32:54;;;;;;;5.63;1.83;;;8.10;99.90;;;;;;5114356;28;20031;-74
2023/01/10 12:35:54;;;;;;;6.95;1.50;;;8.00;99.90;;;;;;5112884;28;20115;-73
2023/01/10 12:44:51;;;;;;;3.85;1.25;;;8.80;99.90;;;;;;5114234;28;20037;-73
2023/01/10 12:47:41;;;;;;;5.30;1.33;;;8.80;99.90;;;;;;5082810;28;20484;-74
2023/01/10 12:50:16;;;;;;;6.28;1.70;;;8.80;99.90;;;;;;5114056;28;20028;-73
2023/01/10 12:52:57;;;;;;;8.25;1.70;;;8.90;99.90;;;;;;5109651;28;20024;-75
2023/01/10 12:55:28;;;;;;;6.20;1.17;;;9.00;99.90;;;;;;5114262;28;20094;-73
2023/01/10 12:57:58;;;;;;;8.73;1.42;;;9.00;99.90;;;;;;5105768;28;20027;-74
2023/01/10 13:00:30;;;;;;;8.50;1.50;;;9.00;99.90;;;;;;5107113;28;20038;-73
2023/01/10 13:02:58;;;;;;;9.48;1.10;;;8.80;99.90;;;;;;5097104;28;20054;-73
2023/01/10 13:05:27;;;;;;;11.82;1.65;;;8.80;99.90;;;;;;5110299;28;20024;-74
2023/01/10 13:07:57;;;;;;;6.15;0.95;;;8.80;99.90;;;;;;5113490;28;20054;-74
2023/01/10 13:10:24;;;;;;;9.60;1.50;;;8.80;99.90;;;;;;5093349;28;20077;-74
2023/01/10 13:13:23;;;;;;;5.43;1.40;;;8.80;99.90;;;;;;5107664;28;20023;-73
2023/01/10 13:16:13;;;;;;;3.40;1.25;;;8.90;99.90;;;;;;5113092;28;20092;-73
2023/01/10 13:19:02;;;;;;;6.50;1.10;;;9.10;99.90;;;;;;5114125;28;20472;-72
2023/01/10 13:21:30;;;;;;;4.65;1.00;;;9.20;99.90;;;;;;5099997;28;20019;-73
2023/01/10 13:24:05;;;;;;;4.10;1.10;;;9.20;99.90;;;;;;5095099;28;20063;-73
2023/01/10 13:26:57;;;;;;;6.57;0.90;;;9.20;99.90;;;;;;5095330;28;20456;-73
2023/01/10 13:29:37;;;;;;;4.80;0.90;;;9.10;99.90;;;;;;5098893;28;20036;-74